Terminal Aerodrome Forecast
Issued by NWS

Home | Current Version | Previous Version | Text Only | Print | Product List | Glossary Off
Versions: 1 2 3 4 5 6 7 8 9 10 11 12 13 14 15 16

505
FTUS41 KCLE 061136
TAFFDY
TAF
KFDY 061136Z 0612/0712 08008KT P6SM SCT050 OVC120
     FM061330 08012KT 5SM -RA OVC025
     FM061500 09010KT 2SM -RA BR OVC008
     FM062200 27010KT P6SM OVC025
     FM070600 27012KT P6SM SCT025 BKN200=

USA.gov is the U.S. government's official web portal to all federal, state and local government web resources and services.